Time;durP1;ratioP1;P1;durP2;ratioP2;P2;SDS_P1;SDS_P2;PMS_P1;PMS_P2;Temp;Humidity;BMP_temperature;BMP_pressure;BME280_temperature;BME280_humidity;BME280_pressure;Samples;Min_cycle;Max_cycle;Signal;HPM_P1;HPM_P2
2023/08/04 00:00:37;;;;;;;4.97;3.90;;;;;;;29.05;56.52;95959.31;5015155;28;20021;-29
2023/08/04 00:03:02;;;;;;;7.25;4.13;;;;;;;29.13;55.94;95959.28;5026337;28;20421;-30
2023/08/04 00:05:29;;;;;;;7.85;4.22;;;;;;;29.09;55.81;95965.25;5020106;28;20018;-30
2023/08/04 00:07:54;;;;;;;5.22;3.60;;;;;;;29.04;56.17;95951.50;5027299;28;20044;-30
2023/08/04 00:10:20;;;;;;;7.07;3.92;;;;;;;28.99;56.16;95949.63;5027537;28;20018;-29
2023/08/04 00:12:46;;;;;;;6.05;3.92;;;;;;;29.08;56.09;95957.41;5025269;28;20484;-29
2023/08/04 00:15:11;;;;;;;6.00;3.72;;;;;;;29.12;55.45;95952.94;5027524;28;20024;-30
2023/08/04 00:17:38;;;;;;;7.40;3.55;;;;;;;29.14;55.66;95947.56;5020077;28;20665;-30
2023/08/04 00:20:08;;;;;;;6.63;3.70;;;;;;;29.17;55.38;95951.28;5026266;28;20072;-29
2023/08/04 00:22:34;;;;;;;9.13;3.63;;;;;;;28.90;56.14;95943.31;5020486;28;20474;-30
2023/08/04 00:25:00;;;;;;;6.95;3.47;;;;;;;28.81;56.42;95948.72;5023192;28;20071;-29
2023/08/04 00:27:25;;;;;;;9.65;3.80;;;;;;;28.94;56.10;95942.94;5020632;28;20021;-28
2023/08/04 00:29:51;;;;;;;6.95;4.30;;;;;;;29.05;55.82;95941.81;5019718;28;20017;-29
2023/08/04 00:32:16;;;;;;;6.93;3.67;;;;;;;29.03;55.88;95936.03;5023821;28;20040;-29
2023/08/04 00:34:42;;;;;;;10.20;4.03;;;;;;;28.92;55.84;95926.03;5021453;28;20017;-30
2023/08/04 00:37:07;;;;;;;4.90;3.40;;;;;;;28.87;56.14;95927.69;5024908;28;20022;-30
2023/08/04 00:39:33;;;;;;;3.75;3.38;;;;;;;28.92;55.91;95926.75;5023397;28;20048;-29
2023/08/04 00:41:58;;;;;;;6.22;3.60;;;;;;;29.15;55.21;95928.75;5023134;28;20029;-29
2023/08/04 00:44:23;;;;;;;6.47;4.20;;;;;;;29.10;55.08;95922.06;5023518;28;20030;-28
2023/08/04 00:46:49;;;;;;;7.75;3.67;;;;;;;28.97;55.35;95921.53;5015475;28;20112;-28
2023/08/04 00:49:18;;;;;;;5.75;3.97;;;;;;;28.98;55.44;95926.56;5022922;28;20061;-29
2023/08/04 00:51:44;;;;;;;7.55;4.32;;;;;;;29.00;55.40;95923.94;5026387;28;20124;-29
2023/08/04 00:54:10;;;;;;;8.48;3.75;;;;;;;29.27;54.44;95927.03;5026212;28;20029;-28
2023/08/04 00:56:37;;;;;;;7.47;4.45;;;;;;;29.17;54.50;95931.72;5016110;28;20029;-30
2023/08/04 00:59:02;;;;;;;5.38;3.70;;;;;;;29.12;54.60;95936.19;5023587;28;20026;-31
2023/08/04 01:01:28;;;;;;;6.18;4.03;;;;;;;28.85;55.38;95935.88;5022831;28;20117;-29
2023/08/04 01:03:55;;;;;;;7.47;4.20;;;;;;;29.03;54.93;95931.22;5023262;28;20048;-29
2023/08/04 01:06:23;;;;;;;5.93;3.90;;;;;;;29.05;55.00;95930.66;5021872;28;20018;-31
2023/08/04 01:09:06;;;;;;;6.35;4.35;;;;;;;29.01;54.88;95933.06;5023380;28;20045;-29
2023/08/04 01:11:38;;;;;;;4.90;3.58;;;;;;;29.06;54.79;95935.63;5022379;28;20097;-28
2023/08/04 01:14:05;;;;;;;7.88;3.95;;;;;;;29.08;54.86;95937.88;5025610;28;20108;-29
2023/08/04 01:16:31;;;;;;;5.60;3.70;;;;;;;29.05;55.07;95936.22;5026093;28;20029;-29
2023/08/04 01:18:59;;;;;;;5.90;3.63;;;;;;;29.12;54.56;95936.19;5017510;28;20377;-31
2023/08/04 01:21:25;;;;;;;6.35;4.00;;;;;;;28.84;55.42;95934.41;5027492;28;20064;-29
2023/08/04 01:23:50;;;;;;;8.23;4.78;;;;;;;28.88;55.23;95926.41;5015239;28;20022;-29
2023/08/04 01:26:17;;;;;;;5.50;3.75;;;;;;;28.84;55.50;95928.81;5029943;28;20045;-28
2023/08/04 01:28:45;;;;;;;5.00;3.67;;;;;;;28.86;55.41;95928.25;5022964;28;20508;-29
2023/08/04 01:31:11;;;;;;;10.77;4.03;;;;;;;28.94;55.38;95932.50;5029740;28;20032;-29
2023/08/04 01:33:37;;;;;;;14.10;4.38;;;;;;;28.86;55.48;95925.47;5015062;28;20040;-29
2023/08/04 01:36:02;;;;;;;7.85;4.45;;;;;;;28.91;55.53;95925.28;5022688;28;20029;-29
2023/08/04 01:38:28;;;;;;;8.50;4.28;;;;;;;28.87;55.49;95927.69;5024665;28;20018;-30
2023/08/04 01:40:54;;;;;;;6.13;4.60;;;;;;;28.84;55.68;95926.03;5025122;28;20492;-29
2023/08/04 01:43:20;;;;;;;6.38;4.13;;;;;;;28.73;55.96;95929.19;5022868;28;20056;-30
2023/08/04 01:45:45;;;;;;;8.75;4.15;;;;;;;28.75;55.90;95920.25;5019055;28;20022;-29
2023/08/04 01:48:11;;;;;;;4.88;3.60;;;;;;;28.81;55.76;95929.19;5017677;28;20042;-29
2023/08/04 01:50:36;;;;;;;5.45;3.75;;;;;;;28.90;55.60;95923.78;5022220;28;20862;-29
2023/08/04 01:53:02;;;;;;;8.50;4.35;;;;;;;28.84;55.61;95914.84;5020532;28;20065;-30
2023/08/04 01:55:27;;;;;;;6.55;3.75;;;;;;;28.84;55.71;95906.47;5023396;28;20025;-29
2023/08/04 01:57:53;;;;;;;8.88;4.53;;;;;;;28.70;56.30;95907.97;5018126;28;20051;-29
2023/08/04 02:00:18;;;;;;;7.50;3.80;;;;;;;28.65;56.29;95920.09;5025113;28;20022;-29
2023/08/04 02:02:44;;;;;;;6.00;4.00;;;;;;;28.69;56.32;95911.31;5016332;28;20018;-29
2023/08/04 02:05:11;;;;;;;7.13;3.85;;;;;;;28.81;56.19;95913.19;5025135;28;20105;-30
2023/08/04 02:07:36;;;;;;;6.68;3.53;;;;;;;28.99;55.62;95907.75;5016236;28;20028;-29
2023/08/04 02:10:03;;;;;;;5.45;4.10;;;;;;;28.90;55.67;95904.25;5020984;28;20017;-28
2023/08/04 02:12:28;;;;;;;5.32;4.20;;;;;;;28.81;55.97;95909.66;5028180;28;20092;-29
2023/08/04 02:14:54;;;;;;;9.98;4.10;;;;;;;28.89;55.68;95915.97;5014584;28;20149;-31
2023/08/04 02:17:19;;;;;;;6.90;4.38;;;;;;;28.66;56.31;95901.28;5021724;28;20034;-29
2023/08/04 02:19:45;;;;;;;6.22;4.50;;;;;;;28.93;55.54;95902.38;5021210;28;20018;-29
2023/08/04 02:22:10;;;;;;;9.43;4.70;;;;;;;28.71;56.21;95889.19;5021344;28;20075;-29
2023/08/04 02:24:36;;;;;;;7.25;4.00;;;;;;;28.77;55.96;95890.47;5020216;28;20045;-29
2023/08/04 02:27:01;;;;;;;7.20;4.45;;;;;;;28.70;56.24;95894.00;5022480;28;20033;-29
2023/08/04 02:29:27;;;;;;;7.70;4.47;;;;;;;28.69;56.12;95900.91;5017611;28;20056;-29
2023/08/04 02:31:52;;;;;;;6.95;3.38;;;;;;;28.78;55.70;95886.41;5023848;28;20021;-29
2023/08/04 02:34:18;;;;;;;7.82;4.43;;;;;;;28.86;55.52;95887.13;5016710;28;20103;-29
2023/08/04 02:36:43;;;;;;;7.32;4.15;;;;;;;28.91;55.24;95875.03;5026373;28;20022;-29
2023/08/04 02:39:09;;;;;;;6.20;3.90;;;;;;;28.75;55.43;95876.34;5021397;28;20025;-29
2023/08/04 02:41:34;;;;;;;6.85;4.30;;;;;;;28.66;55.57;95879.72;5021042;28;20397;-31
2023/08/04 02:44:02;;;;;;;7.00;4.40;;;;;;;28.67;55.83;95869.31;5020711;28;20029;-30
2023/08/04 02:46:28;;;;;;;7.53;4.35;;;;;;;28.78;55.32;95872.47;5020792;28;20586;-28
2023/08/04 02:48:53;;;;;;;6.32;4.28;;;;;;;28.77;55.58;95868.16;5020512;28;20046;-29
2023/08/04 02:51:19;;;;;;;6.75;4.22;;;;;;;28.78;55.25;95874.47;5021304;28;20064;-29
2023/08/04 02:53:46;;;;;;;6.20;4.32;;;;;;;28.82;55.10;95863.69;5024498;28;20366;-29
2023/08/04 02:56:14;;;;;;;11.32;4.10;;;;;;;28.88;54.66;95858.66;5024068;28;20108;-29
2023/08/04 02:58:41;;;;;;;5.43;4.05;;;;;;;28.59;55.70;95853.31;5022966;28;20057;-29
2023/08/04 03:01:07;;;;;;;5.68;3.80;;;;;;;28.95;54.82;95855.09;5024066;28;20029;-29
2023/08/04 03:03:33;;;;;;;6.82;3.78;;;;;;;28.74;55.10;95849.75;5022546;28;20029;-29
2023/08/04 03:06:00;;;;;;;10.38;4.00;;;;;;;28.74;54.87;95846.94;5020908;28;20014;-29
2023/08/04 03:08:25;;;;;;;5.85;3.97;;;;;;;28.74;54.76;95851.78;5020566;28;20049;-29
2023/08/04 03:10:51;;;;;;;4.68;3.80;;;;;;;28.72;55.10;95855.13;5015657;28;20056;-30
2023/08/04 03:13:16;;;;;;;6.53;4.65;;;;;;;28.71;54.67;95850.84;5025729;28;20053;-29
2023/08/04 03:15:42;;;;;;;6.68;3.95;;;;;;;28.52;55.41;95853.31;5027674;28;20060;-31
2023/08/04 03:18:07;;;;;;;5.90;3.97;;;;;;;28.63;54.65;95858.50;5016436;28;20022;-29
2023/08/04 03:20:37;;;;;;;5.68;4.20;;;;;;;28.79;54.26;95865.59;5024373;28;20074;-29
2023/08/04 03:23:03;;;;;;;6.07;4.80;;;;;;;28.83;54.04;95865.94;5015742;28;20064;-30
2023/08/04 03:25:29;;;;;;;7.72;4.05;;;;;;;28.80;54.02;95860.75;5018813;28;20022;-29
2023/08/04 03:27:54;;;;;;;8.05;4.10;;;;;;;28.72;53.87;95871.88;5020165;28;20524;-29
2023/08/04 03:30:20;;;;;;;7.13;4.35;;;;;;;28.82;53.82;95875.59;5020172;28;20474;-29
2023/08/04 03:32:45;;;;;;;8.18;4.40;;;;;;;28.70;53.77;95876.53;5020414;28;20025;-31
2023/08/04 03:35:11;;;;;;;6.22;3.42;;;;;;;28.78;53.75;95877.28;5020526;28;20022;-29
2023/08/04 03:37:36;;;;;;;5.57;3.75;;;;;;;28.75;53.65;95873.56;5019988;28;20390;-29
2023/08/04 03:40:02;;;;;;;6.72;3.65;;;;;;;28.82;53.46;95872.81;5020403;28;20029;-30
2023/08/04 03:42:28;;;;;;;9.02;4.00;;;;;;;28.92;53.09;95873.72;5023248;28;20088;-29
2023/08/04 03:44:53;;;;;;;7.47;4.30;;;;;;;28.79;53.29;95870.41;5024444;28;20076;-29
2023/08/04 03:47:19;;;;;;;6.57;4.10;;;;;;;28.69;53.49;95875.78;5018875;28;20021;-31
2023/08/04 03:49:44;;;;;;;7.43;3.92;;;;;;;28.84;53.22;95866.66;5027609;28;20036;-29
2023/08/04 03:52:09;;;;;;;4.18;3.60;;;;;;;28.57;53.86;95871.91;5019452;28;20121;-30
2023/08/04 03:54:35;;;;;;;11.35;4.55;;;;;;;28.76;53.55;95872.25;5024434;28;20022;-29
2023/08/04 03:57:00;;;;;;;8.40;3.97;;;;;;;28.64;53.83;95868.38;5028917;28;20040;-30
2023/08/04 03:59:26;;;;;;;5.72;4.03;;;;;;;28.66;54.08;95871.34;5025992;28;20033;-29
2023/08/04 04:01:51;;;;;;;8.57;3.90;;;;;;;28.72;54.08;95874.66;5022709;28;20053;-29
2023/08/04 04:04:17;;;;;;;9.82;4.50;;;;;;;28.52;54.66;95867.28;5024058;28;20025;-30
2023/08/04 04:06:42;;;;;;;7.03;4.28;;;;;;;28.46;54.42;95866.72;5024364;28;20374;-30
2023/08/04 04:09:08;;;;;;;6.72;4.22;;;;;;;28.66;54.33;95867.81;5021203;28;20389;-29
2023/08/04 04:11:33;;;;;;;6.43;4.20;;;;;;;28.67;54.31;95872.84;5026858;28;20017;-29
2023/08/04 04:13:58;;;;;;;7.05;4.50;;;;;;;28.60;54.57;95865.22;5026495;28;20025;-29
2023/08/04 04:16:26;;;;;;;5.78;3.97;;;;;;;28.71;54.16;95869.66;5028672;28;20409;-29
2023/08/04 04:18:52;;;;;;;10.05;4.80;;;;;;;28.74;54.34;95871.31;5017509;28;20087;-29
2023/08/04 04:21:17;;;;;;;11.75;4.90;;;;;;;28.72;54.14;95860.72;5030176;28;20112;-29
2023/08/04 04:23:43;;;;;;;8.90;4.43;;;;;;;28.67;54.31;95864.47;5023668;28;20029;-29
2023/08/04 04:26:08;;;;;;;7.75;4.57;;;;;;;28.46;55.00;95855.56;5018650;28;20428;-28
2023/08/04 04:28:35;;;;;;;9.38;4.40;;;;;;;28.69;54.57;95863.88;5029075;28;20095;-29
2023/08/04 04:31:04;;;;;;;5.97;4.25;;;;;;;28.77;54.39;95862.56;5024179;28;20033;-29
2023/08/04 04:33:30;;;;;;;5.75;4.32;;;;;;;28.67;54.55;95861.69;5033847;28;20021;-29
2023/08/04 04:35:55;;;;;;;8.15;4.25;;;;;;;28.64;54.68;95862.78;5019366;28;20389;-29
2023/08/04 04:38:21;;;;;;;9.40;4.35;;;;;;;28.68;54.64;95852.00;5018577;28;20033;-29
2023/08/04 04:40:56;;;;;;;6.28;4.30;;;;;;;28.56;55.06;95862.06;5021594;28;20556;-29
2023/08/04 04:43:22;;;;;;;7.47;4.20;;;;;;;28.58;55.05;95865.75;5025072;28;20026;-29
2023/08/04 04:45:49;;;;;;;9.75;4.80;;;;;;;28.42;55.44;95860.78;5026254;28;20022;-30
2023/08/04 04:48:14;;;;;;;6.88;4.13;;;;;;;28.56;55.43;95859.28;5023728;28;20473;-30
2023/08/04 04:50:40;;;;;;;6.18;4.32;;;;;;;28.43;55.38;95856.69;5022931;28;20129;-29
2023/08/04 04:53:05;;;;;;;7.25;4.47;;;;;;;28.52;55.41;95861.69;5020657;28;20124;-29
2023/08/04 04:55:30;;;;;;;8.40;4.93;;;;;;;28.46;55.52;95856.31;5023749;28;20018;-29
2023/08/04 04:57:56;;;;;;;8.20;4.18;;;;;;;28.47;55.23;95865.41;5019512;28;20843;-30
2023/08/04 05:00:21;;;;;;;7.05;4.65;;;;;;;28.62;55.09;95861.84;5025324;28;20080;-30
2023/08/04 05:02:47;;;;;;;9.13;4.32;;;;;;;28.55;55.37;95855.75;5029557;28;20033;-29
2023/08/04 05:05:12;;;;;;;5.35;4.13;;;;;;;28.41;55.80;95853.72;5022798;28;20068;-29
2023/08/04 05:07:38;;;;;;;7.88;4.22;;;;;;;28.56;55.28;95851.63;5030157;28;20031;-29
2023/08/04 05:10:04;;;;;;;6.22;4.28;;;;;;;28.52;55.47;95867.28;5025900;28;20465;-29
2023/08/04 05:12:29;;;;;;;6.53;4.20;;;;;;;28.74;55.08;95863.69;5025472;28;20026;-30
2023/08/04 05:14:55;;;;;;;11.25;4.40;;;;;;;28.55;55.44;95855.75;5024800;28;20112;-28
2023/08/04 05:17:20;;;;;;;7.50;4.10;;;;;;;28.69;54.98;95861.84;5020880;28;20017;-29
2023/08/04 05:19:46;;;;;;;7.03;4.78;;;;;;;28.60;55.58;95865.22;5021521;28;20017;-30
2023/08/04 05:22:12;;;;;;;6.93;4.30;;;;;;;28.58;55.65;95870.59;5025634;28;20033;-30
2023/08/04 05:24:37;;;;;;;6.53;4.55;;;;;;;28.47;56.23;95868.19;5025384;28;20351;-29
2023/08/04 05:27:04;;;;;;;7.88;4.22;;;;;;;28.48;56.01;95866.91;5025064;28;20094;-29
2023/08/04 05:29:30;;;;;;;7.20;4.20;;;;;;;28.56;55.88;95876.75;5022289;28;20018;-28
2023/08/04 05:31:55;;;;;;;6.50;4.70;;;;;;;28.61;55.89;95875.06;5022266;28;20116;-29
2023/08/04 05:34:21;;;;;;;5.50;4.05;;;;;;;28.61;56.01;95877.84;5028675;28;20053;-29
2023/08/04 05:36:46;;;;;;;7.38;4.88;;;;;;;28.47;56.42;95876.56;5022359;28;20024;-29
2023/08/04 05:39:12;;;;;;;7.28;4.35;;;;;;;28.55;56.50;95880.13;5028358;28;20116;-28
2023/08/04 05:41:37;;;;;;;7.22;4.68;;;;;;;28.54;56.52;95876.56;5022367;28;20017;-29
2023/08/04 05:44:03;;;;;;;9.48;5.03;;;;;;;28.33;57.44;95880.84;5022426;28;20529;-28
2023/08/04 05:46:28;;;;;;;8.45;4.90;;;;;;;28.64;56.39;95890.69;5022327;28;20040;-29
2023/08/04 05:48:54;;;;;;;11.15;4.90;;;;;;;28.69;56.32;95886.19;5020930;28;20153;-29
2023/08/04 05:51:19;;;;;;;9.40;4.57;;;;;;;28.56;56.90;95887.19;5021749;28;20362;-29
2023/08/04 05:53:45;;;;;;;6.45;4.68;;;;;;;28.62;56.95;95893.28;5017823;28;20112;-29
2023/08/04 05:56:10;;;;;;;6.50;4.75;;;;;;;28.69;56.54;95889.72;5018698;28;20030;-29
2023/08/04 05:58:36;;;;;;;8.05;4.50;;;;;;;28.60;57.00;95893.09;5020527;28;20049;-29
2023/08/04 06:01:02;;;;;;;10.30;4.75;;;;;;;28.53;57.16;95891.09;5017809;28;20028;-29
2023/08/04 06:03:27;;;;;;;5.93;4.15;;;;;;;28.66;56.60;95890.13;5023868;28;20021;-28
2023/08/04 06:05:53;;;;;;;6.35;4.60;;;;;;;28.63;56.55;95886.41;5024077;28;20477;-30
2023/08/04 06:08:18;;;;;;;8.48;4.32;;;;;;;28.72;56.55;95880.25;5023323;28;20014;-28
2023/08/04 06:10:44;;;;;;;5.88;4.68;;;;;;;28.58;56.64;95892.91;5016322;28;20108;-29
2023/08/04 06:13:09;;;;;;;12.23;4.68;;;;;;;28.59;56.82;95891.63;5025056;28;20014;-28
2023/08/04 06:15:35;;;;;;;8.90;4.40;;;;;;;28.54;57.07;95895.34;5018063;28;20021;-28
2023/08/04 06:18:01;;;;;;;6.07;4.47;;;;;;;28.51;56.75;95896.47;5023181;28;20025;-29
2023/08/04 06:20:26;;;;;;;7.22;4.63;;;;;;;28.55;56.91;95888.47;5019425;28;20028;-30
2023/08/04 06:22:51;;;;;;;5.78;4.80;;;;;;;28.41;57.50;95887.94;5021198;28;20022;-28
2023/08/04 06:25:17;;;;;;;7.05;4.78;;;;;;;28.38;57.49;95883.47;5021293;28;20083;-30
2023/08/04 06:27:43;;;;;;;8.52;4.70;;;;;;;28.74;56.44;95894.38;5020385;28;20037;-30
2023/08/04 06:30:09;;;;;;;6.53;4.50;;;;;;;28.69;56.21;95884.16;5021076;28;20025;-29
2023/08/04 06:32:35;;;;;;;7.38;4.53;;;;;;;28.59;56.73;95883.25;5021004;28;20021;-29
2023/08/04 06:35:00;;;;;;;7.70;4.90;;;;;;;28.52;56.67;95886.81;5021371;28;20033;-29
2023/08/04 06:37:26;;;;;;;9.35;4.70;;;;;;;28.50;56.93;95889.41;5021604;28;20420;-29
2023/08/04 06:39:52;;;;;;;9.32;4.60;;;;;;;28.39;56.92;95896.09;5020082;28;20025;-28
2023/08/04 06:42:18;;;;;;;7.45;4.25;;;;;;;28.38;56.75;95888.28;5016228;28;20168;-29
2023/08/04 06:44:45;;;;;;;10.40;4.88;;;;;;;28.41;56.52;95901.13;5020452;28;20018;-30
2023/08/04 06:47:11;;;;;;;7.55;4.07;;;;;;;28.56;55.90;95895.56;5020634;28;20021;-29
2023/08/04 06:49:36;;;;;;;6.45;4.28;;;;;;;28.69;55.50;95905.72;5023751;28;20041;-29
2023/08/04 06:52:03;;;;;;;12.35;4.97;;;;;;;28.54;56.05;95906.53;5018197;28;20373;-29
2023/08/04 06:54:29;;;;;;;8.75;4.30;;;;;;;28.26;56.72;95895.56;5020361;28;20473;-29
2023/08/04 06:56:54;;;;;;;7.13;4.13;;;;;;;28.57;55.72;95894.22;5020913;28;20025;-29
2023/08/04 06:59:20;;;;;;;6.43;4.10;;;;;;;28.70;55.37;95891.22;5021161;28;20044;-28
2023/08/04 07:01:45;;;;;;;8.65;3.95;;;;;;;28.62;55.64;95896.09;5014378;28;20026;-29
2023/08/04 07:04:11;;;;;;;6.65;4.15;;;;;;;28.51;55.93;95897.22;5020382;28;20374;-29
2023/08/04 07:06:36;;;;;;;7.85;4.32;;;;;;;28.59;55.56;95897.94;5020388;28;20074;-29
2023/08/04 07:09:02;;;;;;;9.55;4.10;;;;;;;28.63;55.76;95891.25;5020675;28;20026;-28
2023/08/04 07:11:28;;;;;;;9.10;4.40;;;;;;;28.63;55.90;95896.81;5011897;28;20025;-30
2023/08/04 07:13:53;;;;;;;8.45;4.00;;;;;;;28.85;54.85;95885.66;5021027;28;20032;-30
2023/08/04 07:16:19;;;;;;;8.02;3.90;;;;;;;28.77;55.35;95878.56;5018421;28;20021;-29
2023/08/04 07:18:44;;;;;;;10.65;4.15;;;;;;;28.88;55.31;95878.94;5023128;28;20028;-29
2023/08/04 07:21:11;;;;;;;5.88;3.70;;;;;;;28.96;54.95;95876.13;5016171;28;20021;-28
2023/08/04 07:23:38;;;;;;;8.82;3.78;;;;;;;28.60;55.78;95868.00;5022595;28;20359;-31
2023/08/04 07:26:04;;;;;;;11.73;4.40;;;;;;;28.66;55.53;95856.66;5015645;28;20046;-30
2023/08/04 07:28:30;;;;;;;9.32;3.97;;;;;;;28.88;54.82;95859.41;5025971;28;20017;-29
2023/08/04 07:30:56;;;;;;;5.78;3.78;;;;;;;29.02;54.54;95870.34;5020679;28;20028;-29
2023/08/04 07:33:23;;;;;;;5.93;3.35;;;;;;;28.60;55.75;95862.41;5020948;28;20100;-29
2023/08/04 07:35:55;;;;;;;6.53;3.63;;;;;;;29.05;54.89;95858.06;5020104;28;20409;-30
2023/08/04 07:38:22;;;;;;;7.25;3.50;;;;;;;28.95;55.06;95858.63;5013206;28;20109;-29
2023/08/04 07:40:48;;;;;;;5.68;3.72;;;;;;;28.86;55.40;95856.44;5019962;28;20531;-29
2023/08/04 07:43:14;;;;;;;7.82;3.53;;;;;;;29.01;54.85;95860.47;5019033;28;20115;-30
2023/08/04 07:45:40;;;;;;;6.82;4.15;;;;;;;29.00;54.75;95865.31;5020014;28;20382;-30
2023/08/04 07:48:06;;;;;;;8.25;3.70;;;;;;;28.75;54.87;95872.81;5020615;28;20122;-29
2023/08/04 07:50:31;;;;;;;9.15;4.05;;;;;;;28.91;54.57;95869.44;5022525;28;20473;-29
2023/08/04 07:52:57;;;;;;;6.43;3.80;;;;;;;29.06;53.73;95871.44;5025464;28;20062;-28
2023/08/04 07:55:22;;;;;;;7.43;3.90;;;;;;;29.01;53.91;95869.59;5020104;28;20030;-29
2023/08/04 07:57:48;;;;;;;10.20;4.03;;;;;;;28.99;53.58;95871.47;5027014;28;20037;-29
2023/08/04 08:00:14;;;;;;;6.32;3.55;;;;;;;28.93;53.89;95858.44;5019894;28;20041;-29
2023/08/04 08:02:40;;;;;;;5.07;3.88;;;;;;;28.85;54.25;95857.75;5027680;28;20449;-29
2023/08/04 08:05:07;;;;;;;4.53;3.38;;;;;;;28.89;53.90;95857.38;5019730;28;20091;-31
2023/08/04 08:07:33;;;;;;;7.10;3.63;;;;;;;28.97;54.16;95857.31;5020609;28;20048;-29
2023/08/04 08:09:59;;;;;;;10.20;4.20;;;;;;;29.11;53.60;95850.22;5020472;28;20408;-29
2023/08/04 08:12:24;;;;;;;6.72;3.70;;;;;;;29.05;53.86;95847.63;5020035;28;20092;-28
2023/08/04 08:14:49;;;;;;;9.73;3.67;;;;;;;29.17;53.14;95834.00;5020910;28;20113;-29
2023/08/04 08:17:15;;;;;;;5.93;3.58;;;;;;;29.07;53.49;95827.50;5019275;28;20053;-29
2023/08/04 08:19:40;;;;;;;5.93;4.13;;;;;;;29.19;53.13;95831.34;5018549;28;20026;-29
2023/08/04 08:22:06;;;;;;;9.43;3.75;;;;;;;28.87;53.85;95832.06;5019790;28;20022;-29
2023/08/04 08:24:31;;;;;;;8.13;3.53;;;;;;;29.19;52.88;95843.28;5020200;28;20060;-29
2023/08/04 08:26:57;;;;;;;7.65;3.70;;;;;;;29.10;53.18;95834.75;5020511;28;20031;-28
2023/08/04 08:29:22;;;;;;;10.00;4.15;;;;;;;28.81;53.53;95846.19;5019637;28;20038;-29
2023/08/04 08:31:48;;;;;;;8.15;4.30;;;;;;;28.95;53.00;95832.75;5021562;28;20029;-29
2023/08/04 08:34:13;;;;;;;6.45;3.55;;;;;;;29.30;51.90;95830.97;5018670;28;20030;-29
2023/08/04 08:36:39;;;;;;;6.07;3.40;;;;;;;29.07;52.53;95824.72;5026980;28;20043;-30
2023/08/04 08:39:04;;;;;;;7.65;3.42;;;;;;;29.21;52.34;95820.38;5018802;28;20053;-29
2023/08/04 08:41:30;;;;;;;6.45;3.42;;;;;;;29.01;53.41;95824.19;5026577;28;20079;-29
2023/08/04 08:43:55;;;;;;;4.07;3.30;;;;;;;29.24;52.58;95824.81;5026236;28;20032;-28
2023/08/04 08:46:21;;;;;;;8.38;3.95;;;;;;;29.26;52.67;95811.03;5016601;28;20045;-29
2023/08/04 08:48:50;;;;;;;5.22;3.47;;;;;;;29.05;53.12;95818.97;5023163;28;20137;-29
2023/08/04 08:51:20;;;;;;;6.00;3.33;;;;;;;29.22;52.54;95817.00;5022925;28;20053;-29
2023/08/04 08:53:49;;;;;;;7.03;3.45;;;;;;;29.28;52.64;95819.59;5023417;28;20473;-30
2023/08/04 08:56:18;;;;;;;7.85;3.83;;;;;;;29.36;52.16;95814.72;5023122;28;20045;-29
2023/08/04 08:58:44;;;;;;;6.68;3.25;;;;;;;29.31;52.35;95829.63;5025682;28;20061;-29
2023/08/04 09:01:10;;;;;;;5.72;3.30;;;;;;;29.21;52.54;95818.31;5026253;28;20053;-29
2023/08/04 09:03:36;;;;;;;8.27;3.53;;;;;;;29.38;52.04;95833.72;5023823;28;20026;-29
2023/08/04 09:06:02;;;;;;;9.82;3.70;;;;;;;29.43;51.90;95825.13;5019672;28;20022;-29
2023/08/04 09:08:30;;;;;;;5.38;3.92;;;;;;;29.24;52.61;95827.63;5018943;28;20021;-29
2023/08/04 09:11:02;;;;;;;11.25;4.43;;;;;;;29.44;51.74;95820.28;5018462;28;20057;-29
2023/08/04 09:13:27;;;;;;;7.13;4.50;;;;;;;29.35;51.88;95818.81;5026550;28;20112;-28
2023/08/04 09:16:00;;;;;;;7.93;4.20;;;;;;;29.31;51.82;95832.41;5029618;28;20098;-29
2023/08/04 09:18:26;;;;;;;6.25;3.47;;;;;;;29.40;51.74;95831.84;5015766;28;20413;-29
2023/08/04 09:20:59;;;;;;;6.30;3.25;;;;;;;29.18;52.09;95832.66;5029906;28;20025;-28
2023/08/04 09:23:27;;;;;;;6.47;3.40;;;;;;;29.51;51.31;95825.81;5022673;28;20021;-30
2023/08/04 09:25:55;;;;;;;6.57;3.25;;;;;;;29.57;51.09;95826.34;5015702;28;20109;-30
2023/08/04 09:28:21;;;;;;;4.75;3.50;;;;;;;29.60;50.81;95824.47;5021809;28;20017;-29
2023/08/04 09:31:11;;;;;;;7.10;2.97;;;;;;;29.56;50.85;95835.28;5022438;28;20047;-29
2023/08/04 09:33:41;;;;;;;7.50;2.83;;;;;;;29.71;50.24;95837.25;5027640;28;20048;-30
2023/08/04 09:36:13;;;;;;;6.82;2.88;;;;;;;29.45;50.86;95836.47;5023646;28;20105;-29
2023/08/04 09:38:40;;;;;;;7.65;3.13;;;;;;;29.64;50.38;95825.56;5015298;28;20026;-29
2023/08/04 09:41:08;;;;;;;7.60;2.92;;;;;;;29.65;50.22;95827.03;5022297;28;20370;-30
2023/08/04 09:43:34;;;;;;;7.55;3.58;;;;;;;29.48;50.74;95818.56;5017788;28;20021;-29
2023/08/04 09:46:08;;;;;;;5.32;2.80;;;;;;;29.49;50.33;95822.84;5025664;28;20475;-29
2023/08/04 09:48:34;;;;;;;9.00;3.05;;;;;;;29.60;50.37;95810.50;5017360;28;20074;-29
2023/08/04 09:51:14;;;;;;;4.93;2.80;;;;;;;29.63;50.30;95814.94;5019546;28;20029;-29
2023/08/04 09:53:43;;;;;;;5.05;2.85;;;;;;;29.77;49.78;95812.63;5022465;28;20091;-29
2023/08/04 09:56:12;;;;;;;6.20;3.10;;;;;;;29.61;49.87;95812.72;5021648;28;20042;-30
2023/08/04 09:58:38;;;;;;;7.95;3.30;;;;;;;29.59;49.83;95809.75;5022449;28;20071;-29
2023/08/04 10:01:04;;;;;;;6.70;3.20;;;;;;;29.71;49.38;95810.03;5021566;28;20441;-29
2023/08/04 10:03:30;;;;;;;6.28;3.05;;;;;;;29.66;49.35;95813.81;5022029;28;20052;-29
2023/08/04 10:06:00;;;;;;;3.50;2.78;;;;;;;29.65;49.51;95806.75;5021718;28;20026;-29
2023/08/04 10:08:36;;;;;;;5.40;2.90;;;;;;;29.78;49.18;95809.25;5014317;28;20109;-29
2023/08/04 10:11:02;;;;;;;4.22;3.05;;;;;;;29.67;49.25;95806.91;5021490;28;20509;-29
2023/08/04 10:13:33;;;;;;;8.15;3.10;;;;;;;29.88;48.90;95810.09;5021485;28;20026;-29
2023/08/04 10:16:02;;;;;;;6.72;2.97;;;;;;;29.82;48.73;95811.63;5028804;28;20026;-29
2023/08/04 10:18:51;;;;;;;5.55;2.80;;;;;;;29.85;48.82;95810.50;5021251;28;20026;-31
2023/08/04 10:21:20;;;;;;;6.93;2.97;;;;;;;29.75;48.62;95798.47;5018062;28;20497;-29
2023/08/04 10:23:45;;;;;;;8.30;3.00;;;;;;;29.92;48.38;95801.31;5024749;28;20109;-29
2023/08/04 10:26:13;;;;;;;4.65;2.60;;;;;;;29.70;48.59;95797.38;5029186;28;20104;-29
2023/08/04 10:29:16;;;;;;;4.93;2.58;;;;;;;29.70;48.27;95794.59;5021639;28;20370;-29
2023/08/04 10:31:55;;;;;;;3.60;2.80;;;;;;;29.76;48.23;95795.09;5021367;28;20009;-28
2023/08/04 10:34:27;;;;;;;4.85;2.90;;;;;;;29.84;48.21;95795.03;5028732;28;20025;-29
2023/08/04 10:37:01;;;;;;;7.07;2.95;;;;;;;29.85;48.25;95802.84;5012849;28;20084;-29
2023/08/04 10:39:37;;;;;;;4.80;2.88;;;;;;;29.73;48.66;95784.31;5028869;28;20080;-28
2023/08/04 10:42:11;;;;;;;5.35;2.78;;;;;;;29.82;48.69;95792.81;5021230;28;20021;-29
2023/08/04 10:45:07;;;;;;;5.55;2.78;;;;;;;29.98;47.75;95787.88;5017426;28;20032;-31
2023/08/04 10:47:41;;;;;;;6.70;2.63;;;;;;;29.90;48.64;95784.38;5017009;28;20092;-28
2023/08/04 10:50:07;;;;;;;6.30;2.75;;;;;;;29.97;47.85;95775.22;5024573;28;20040;-29
2023/08/04 10:52:34;;;;;;;9.52;3.05;;;;;;;29.98;48.17;95776.69;5014058;28;20029;-29
2023/08/04 10:55:01;;;;;;;6.22;2.58;;;;;;;29.96;48.20;95782.84;5019906;28;20018;-29
2023/08/04 10:57:31;;;;;;;6.57;2.47;;;;;;;29.80;48.51;95777.91;5014106;28;20374;-30
2023/08/04 10:59:57;;;;;;;5.10;2.58;;;;;;;29.98;47.58;95780.22;5024159;28;20025;-29
2023/08/04 11:02:24;;;;;;;4.05;2.70;;;;;;;29.75;48.12;95784.50;5016412;28;20018;-30
2023/08/04 11:04:53;;;;;;;6.28;3.35;;;;;;;29.91;47.45;95788.66;5023530;28;20093;-29
2023/08/04 11:07:21;;;;;;;6.97;2.97;;;;;;;29.94;47.83;95784.69;5017585;28;20108;-30
2023/08/04 11:09:48;;;;;;;5.32;2.92;;;;;;;29.92;47.59;95795.75;5020611;28;20022;-29
2023/08/04 11:12:15;;;;;;;7.40;2.83;;;;;;;30.07;47.20;95773.25;5020814;28;20029;-29
2023/08/04 11:14:41;;;;;;;7.18;2.95;;;;;;;30.02;47.20;95785.44;5020479;28;20033;-29
2023/08/04 11:17:22;;;;;;;6.78;3.03;;;;;;;29.98;47.20;95776.69;5020675;28;20112;-28
2023/08/04 11:19:50;;;;;;;8.75;2.90;;;;;;;30.02;47.44;95779.84;5020569;28;20030;-29
2023/08/04 11:22:22;;;;;;;4.97;2.58;;;;;;;30.13;47.23;95773.75;5024686;28;20100;-29
2023/08/04 11:24:50;;;;;;;5.43;2.63;;;;;;;29.99;46.79;95775.38;5022864;28;20105;-29
2023/08/04 11:27:16;;;;;;;5.13;2.15;;;;;;;29.98;47.00;95776.69;5023234;28;20029;-29
2023/08/04 11:29:42;;;;;;;6.00;2.92;;;;;;;30.04;46.99;95777.22;5025011;28;20373;-28